createdAt,value
2018-02-08T00:02:20.873Z,16.94
2018-02-08T00:04:46.709Z,17.06
2018-02-08T00:07:13.530Z,17.06
2018-02-08T00:09:40.317Z,17.01
2018-02-08T00:12:07.091Z,16.87
2018-02-08T00:14:32.909Z,16.90
2018-02-08T00:16:58.717Z,16.96
2018-02-08T00:19:25.377Z,16.97
2018-02-08T00:21:52.149Z,16.98
2018-02-08T00:24:17.954Z,17.00
2018-02-08T00:26:43.769Z,16.88
2018-02-08T00:29:10.505Z,16.85
2018-02-08T00:31:36.306Z,16.83
2018-02-08T00:34:03.144Z,16.82
2018-02-08T00:36:28.954Z,16.92
2018-02-08T00:38:54.764Z,16.87
2018-02-08T00:41:20.570Z,16.87
2018-02-08T00:43:46.377Z,16.85
2018-02-08T00:46:12.301Z,16.81
2018-02-08T00:48:38.106Z,16.81
2018-02-08T00:51:04.009Z,16.84
2018-02-08T00:53:29.870Z,16.77
2018-02-08T00:55:55.681Z,16.87
2018-02-08T00:58:21.482Z,16.83
2018-02-08T01:00:47.289Z,16.81
2018-02-08T01:03:13.099Z,16.88
2018-02-08T01:05:38.901Z,16.79
2018-02-08T01:08:04.715Z,16.82
2018-02-08T01:10:30.518Z,16.81
2018-02-08T01:12:56.317Z,16.78
2018-02-08T01:15:22.164Z,16.74
2018-02-08T01:17:47.974Z,16.84
2018-02-08T01:20:13.795Z,16.81
2018-02-08T01:22:39.641Z,16.72
2018-02-08T01:25:05.449Z,16.72
2018-02-08T01:27:31.403Z,16.66
2018-02-08T01:29:57.214Z,16.69
2018-02-08T01:32:23.034Z,16.79
2018-02-08T01:34:48.841Z,16.77
2018-02-08T01:37:14.639Z,16.70
2018-02-08T01:39:40.449Z,16.65
2018-02-08T01:42:06.261Z,16.79
2018-02-08T01:44:32.958Z,16.92
2018-02-08T01:46:58.772Z,16.68
2018-02-08T01:49:30.794Z,16.71
2018-02-08T01:51:56.600Z,16.89
2018-02-08T01:54:22.406Z,16.85
2018-02-08T01:56:48.205Z,16.94
2018-02-08T01:59:14.049Z,17.02
2018-02-08T02:01:40.813Z,16.98
2018-02-08T02:04:06.662Z,17.06
2018-02-08T02:06:32.526Z,17.09
2018-02-08T02:08:58.369Z,17.04
2018-02-08T02:11:24.178Z,16.93
2018-02-08T02:13:49.986Z,16.76
2018-02-08T02:16:16.669Z,16.80
2018-02-08T02:18:42.510Z,16.87
2018-02-08T02:21:09.114Z,16.86
2018-02-08T02:23:35.926Z,16.82
2018-02-08T02:26:01.729Z,16.76
2018-02-08T02:28:27.549Z,16.65
2018-02-08T02:30:54.323Z,16.74
2018-02-08T02:33:20.946Z,16.77
2018-02-08T02:35:46.814Z,16.74
2018-02-08T02:38:13.449Z,16.71
2018-02-08T02:40:40.282Z,16.67
2018-02-08T02:43:07.090Z,16.65
2018-02-08T02:45:33.908Z,16.64
2018-02-08T02:48:00.746Z,16.71
2018-02-08T02:50:27.374Z,16.79
2018-02-08T02:52:53.190Z,16.71
2018-02-08T02:55:19.014Z,16.74
2018-02-08T02:57:44.826Z,16.68
2018-02-08T03:00:10.653Z,16.59
2018-02-08T03:02:36.454Z,16.62
2018-02-08T03:05:02.313Z,16.60
2018-02-08T03:07:28.122Z,16.72
2018-02-08T03:09:53.982Z,16.68
2018-02-08T03:12:19.814Z,16.64
2018-02-08T03:14:45.634Z,16.60
2018-02-08T03:17:11.442Z,16.69
2018-02-08T03:19:37.254Z,16.72
2018-02-08T03:22:03.122Z,16.74
2018-02-08T03:24:28.936Z,16.69
2018-02-08T03:26:54.750Z,16.64
2018-02-08T03:29:20.583Z,16.60
2018-02-08T03:31:46.420Z,16.66
2018-02-08T03:34:12.228Z,16.64
2018-02-08T03:36:38.054Z,16.63
2018-02-08T03:39:03.898Z,16.59
2018-02-08T03:41:29.722Z,16.71
2018-02-08T03:43:55.535Z,16.75
2018-02-08T03:46:21.515Z,16.73
2018-02-08T03:48:47.370Z,16.82
2018-02-08T03:51:13.222Z,16.86
2018-02-08T03:53:39.037Z,16.83
2018-02-08T03:56:04.850Z,16.58
2018-02-08T03:58:30.657Z,16.56
2018-02-08T04:00:56.474Z,16.62
2018-02-08T04:03:22.282Z,16.68
2018-02-08T04:05:48.121Z,16.76
2018-02-08T04:08:13.936Z,16.76
2018-02-08T04:10:39.753Z,16.63
2018-02-08T04:13:05.573Z,16.69
2018-02-08T04:15:31.390Z,16.70
2018-02-08T04:17:57.210Z,16.72
2018-02-08T04:20:23.023Z,16.73
2018-02-08T04:22:48.882Z,16.70
2018-02-08T04:25:14.695Z,16.49
2018-02-08T04:27:40.499Z,16.41
2018-02-08T04:30:06.375Z,16.63
2018-02-08T04:32:32.185Z,16.63
2018-02-08T04:34:58.000Z,16.63
2018-02-08T04:37:23.830Z,16.63
2018-02-08T04:39:55.826Z,16.47
2018-02-08T04:42:27.787Z,16.53
2018-02-08T04:44:59.626Z,16.41
2018-02-08T04:50:18.421Z,16.68
2018-02-08T04:52:44.230Z,16.68
2018-02-08T04:55:10.079Z,16.66
2018-02-08T04:57:35.898Z,16.66
2018-02-08T05:00:02.685Z,16.64
2018-02-08T05:02:28.516Z,16.71
2018-02-08T05:04:54.362Z,16.71
2018-02-08T05:07:20.186Z,16.59
2018-02-08T05:09:45.993Z,16.60
2018-02-08T05:12:11.805Z,16.63
2018-02-08T05:14:37.614Z,16.66
2018-02-08T05:17:03.615Z,16.67
2018-02-08T05:19:29.479Z,16.65
2018-02-08T05:21:55.290Z,16.54
2018-02-08T05:24:21.097Z,16.41
2018-02-08T05:26:46.910Z,16.36
2018-02-08T05:29:12.725Z,16.38
2018-02-08T05:31:38.557Z,16.41
2018-02-08T05:34:04.370Z,16.42
2018-02-08T05:36:30.186Z,16.42
2018-02-08T05:38:56.057Z,16.49
2018-02-08T05:41:21.865Z,16.60
2018-02-08T05:43:47.665Z,16.71
2018-02-08T05:46:13.533Z,16.77
2018-02-08T05:48:39.334Z,16.58
2018-02-08T05:51:05.145Z,16.54
2018-02-08T05:53:30.969Z,16.43
2018-02-08T05:55:56.784Z,16.42
2018-02-08T05:58:22.598Z,16.39
2018-02-08T06:00:48.406Z,16.36
2018-02-08T06:03:14.223Z,16.38
2018-02-08T06:05:40.035Z,16.38
2018-02-08T06:08:05.838Z,16.42
2018-02-08T06:10:31.647Z,16.42
2018-02-08T06:12:57.654Z,16.42
2018-02-08T06:15:23.459Z,16.36
2018-02-08T06:17:49.262Z,16.40
2018-02-08T06:20:15.074Z,16.38
2018-02-08T06:22:40.953Z,16.39
2018-02-08T06:25:06.772Z,16.41
2018-02-08T06:27:32.581Z,16.46
2018-02-08T06:29:58.386Z,16.52
2018-02-08T06:32:24.203Z,16.43
2018-02-08T06:34:50.013Z,16.42
2018-02-08T06:37:15.822Z,16.33
2018-02-08T06:39:41.640Z,16.27
2018-02-08T06:42:07.501Z,16.24
2018-02-08T06:44:33.350Z,16.31
2018-02-08T06:46:59.162Z,16.38
2018-02-08T06:49:24.977Z,16.28
2018-02-08T06:51:50.814Z,16.26
2018-02-08T06:54:16.617Z,16.33
2018-02-08T06:56:42.427Z,16.26
2018-02-08T06:59:08.270Z,16.38
2018-02-08T07:01:34.074Z,16.39
2018-02-08T07:03:59.878Z,16.39
2018-02-08T07:06:25.682Z,16.46
2018-02-08T07:08:51.526Z,16.46
2018-02-08T07:11:17.338Z,16.33
2018-02-08T07:13:43.156Z,16.32
2018-02-08T07:16:09.030Z,16.45
2018-02-08T07:18:34.842Z,16.42
2018-02-08T07:21:00.663Z,16.48
2018-02-08T07:23:26.466Z,16.52
2018-02-08T07:25:52.280Z,16.44
2018-02-08T07:28:18.102Z,16.26
2018-02-08T07:30:43.958Z,16.28
2018-02-08T07:33:09.773Z,16.31
2018-02-08T07:35:35.593Z,16.28
2018-02-08T07:38:01.412Z,16.31
2018-02-08T07:40:27.214Z,16.35
2018-02-08T07:42:53.023Z,16.39
2018-02-08T07:45:18.834Z,16.37
2018-02-08T07:47:44.694Z,16.48
2018-02-08T07:50:10.503Z,16.41
2018-02-08T07:52:36.333Z,16.39
2018-02-08T07:55:02.139Z,16.44
2018-02-08T07:57:27.943Z,16.30
2018-02-08T07:59:53.762Z,16.34
2018-02-08T08:02:19.571Z,16.37
2018-02-08T08:04:45.377Z,16.39
2018-02-08T08:07:11.178Z,16.41
2018-02-08T08:09:36.998Z,16.49
2018-02-08T08:12:02.822Z,16.55
2018-02-08T08:14:28.681Z,16.40
2018-02-08T08:16:54.493Z,16.44
2018-02-08T08:19:21.246Z,16.48
2018-02-08T08:21:47.059Z,16.48
2018-02-08T08:24:12.880Z,16.42
2018-02-08T08:26:38.682Z,16.36
2018-02-08T08:29:04.490Z,16.37
2018-02-08T08:31:30.302Z,16.45
2018-02-08T08:33:56.110Z,16.39
2018-02-08T08:36:21.925Z,16.52
2018-02-08T08:38:47.745Z,16.38
2018-02-08T08:41:13.561Z,16.45
2018-02-08T08:43:39.366Z,16.51
2018-02-08T08:46:05.178Z,16.60
2018-02-08T08:48:31.006Z,16.49
2018-02-08T08:50:56.817Z,16.69
2018-02-08T08:53:22.630Z,16.56
2018-02-08T08:55:48.441Z,16.51
2018-02-08T08:58:14.255Z,16.55
2018-02-08T09:00:40.065Z,16.59
2018-02-08T09:03:05.870Z,16.74
2018-02-08T09:05:31.677Z,16.59
2018-02-08T09:07:57.501Z,16.53
2018-02-08T09:10:23.307Z,16.67
2018-02-08T09:12:49.116Z,16.65
2018-02-08T09:15:14.934Z,16.61
2018-02-08T09:17:40.753Z,16.64
2018-02-08T09:20:06.618Z,16.60
2018-02-08T09:22:32.435Z,16.61
2018-02-08T09:24:58.258Z,16.43
2018-02-08T09:27:24.076Z,16.57
2018-02-08T09:29:49.877Z,16.59
2018-02-08T09:32:15.699Z,16.72
2018-02-08T09:34:41.506Z,16.72
2018-02-08T09:37:07.317Z,16.68
2018-02-08T09:39:33.131Z,16.68
2018-02-08T09:41:58.937Z,16.64
2018-02-08T09:44:24.755Z,16.65
2018-02-08T09:46:50.569Z,16.62
2018-02-08T09:49:16.383Z,16.74
2018-02-08T09:51:42.193Z,16.61
2018-02-08T09:54:08.039Z,16.57
2018-02-08T09:56:33.847Z,16.65
2018-02-08T09:58:59.691Z,16.73
2018-02-08T10:01:25.495Z,16.65
2018-02-08T10:03:51.294Z,16.75
2018-02-08T10:06:17.098Z,16.65
2018-02-08T10:08:42.905Z,16.63
2018-02-08T10:11:08.718Z,16.61
2018-02-08T10:13:34.571Z,16.58
2018-02-08T10:16:00.460Z,16.67
2018-02-08T10:18:26.274Z,16.76
2018-02-08T10:20:52.078Z,16.69
2018-02-08T10:23:17.884Z,16.61
2018-02-08T10:25:43.693Z,16.76
2018-02-08T10:28:09.499Z,16.78
2018-02-08T10:30:35.311Z,16.82
2018-02-08T10:33:01.158Z,16.79
2018-02-08T10:35:27.995Z,16.74
2018-02-08T10:37:53.818Z,16.81
2018-02-08T10:40:19.626Z,16.73
2018-02-08T10:42:45.426Z,16.73
2018-02-08T10:45:11.246Z,16.86
2018-02-08T10:47:37.055Z,16.79
2018-02-08T10:50:02.876Z,16.79
2018-02-08T10:52:28.716Z,16.90
2018-02-08T10:54:54.585Z,16.79
2018-02-08T10:57:20.393Z,16.73
2018-02-08T10:59:46.198Z,16.75
2018-02-08T11:02:12.007Z,16.79
2018-02-08T11:04:37.810Z,16.79
2018-02-08T11:07:03.626Z,16.85
2018-02-08T11:09:29.481Z,16.76
2018-02-08T11:11:56.218Z,16.74
2018-02-08T11:14:22.061Z,16.86
2018-02-08T11:16:47.865Z,16.80
2018-02-08T11:19:13.702Z,16.71
2018-02-08T11:21:39.510Z,16.86
2018-02-08T11:24:05.363Z,16.82
2018-02-08T11:26:31.173Z,16.80
2018-02-08T11:28:56.996Z,16.72
2018-02-08T11:31:22.812Z,16.73
2018-02-08T11:33:48.670Z,16.80
2018-02-08T11:36:14.475Z,16.83
2018-02-08T11:38:40.312Z,16.82
2018-02-08T11:41:06.153Z,16.79
2018-02-08T11:43:31.958Z,16.74
2018-02-08T11:45:57.766Z,16.78
2018-02-08T11:48:23.573Z,16.76
2018-02-08T11:50:49.381Z,16.81
2018-02-08T11:53:15.222Z,16.83
2018-02-08T11:55:41.030Z,16.69
2018-02-08T11:58:06.908Z,16.79
2018-02-08T12:00:32.714Z,16.86
2018-02-08T12:02:58.565Z,16.82
2018-02-08T12:05:24.375Z,16.81
2018-02-08T12:07:50.180Z,16.92
2018-02-08T12:10:15.990Z,16.84
2018-02-08T12:12:41.798Z,16.83
2018-02-08T12:15:07.601Z,16.78
2018-02-08T12:17:33.446Z,16.75
2018-02-08T12:19:59.285Z,16.76
2018-02-08T12:22:25.086Z,16.73
2018-02-08T12:24:50.882Z,16.83
2018-02-08T12:27:16.694Z,16.96
2018-02-08T12:29:42.613Z,16.77
2018-02-08T12:32:08.422Z,16.83
2018-02-08T12:34:34.263Z,16.93
2018-02-08T12:37:00.067Z,17.13
2018-02-08T12:39:25.870Z,16.84
2018-02-08T12:41:51.679Z,16.96
2018-02-08T12:44:17.481Z,17.03
2018-02-08T12:46:43.302Z,16.93
2018-02-08T12:49:09.142Z,16.99
2018-02-08T12:51:34.986Z,16.91
2018-02-08T12:54:00.834Z,16.85
2018-02-08T12:56:26.683Z,16.98
2018-02-08T12:58:52.489Z,17.03
2018-02-08T13:01:18.293Z,16.93
2018-02-08T13:03:44.099Z,16.84
2018-02-08T13:06:09.914Z,16.91
2018-02-08T13:08:35.726Z,16.90
2018-02-08T13:11:01.547Z,16.90
2018-02-08T13:13:27.362Z,16.88
2018-02-08T13:15:53.177Z,16.98
2018-02-08T13:18:18.986Z,16.91
2018-02-08T13:20:44.786Z,16.85
2018-02-08T13:23:10.627Z,16.91
2018-02-08T13:25:36.438Z,16.89
2018-02-08T13:28:02.254Z,16.91
2018-02-08T13:30:28.171Z,16.84
2018-02-08T13:32:53.986Z,16.86
2018-02-08T13:35:19.882Z,16.86
2018-02-08T13:37:45.747Z,16.85
2018-02-08T13:43:13.442Z,16.79
2018-02-08T13:45:39.270Z,16.90
2018-02-08T13:48:14.030Z,16.90
2018-02-08T13:54:01.978Z,16.77
2018-02-08T13:56:33.909Z,16.68
2018-02-08T13:59:16.688Z,16.81
2018-02-08T14:01:43.386Z,16.82
2018-02-08T14:04:09.206Z,16.88
2018-02-08T14:06:35.013Z,16.80
2018-02-08T14:09:00.861Z,16.81
2018-02-08T14:11:26.666Z,16.85
2018-02-08T14:13:52.475Z,16.83
2018-02-08T14:16:18.289Z,16.95
2018-02-08T14:18:44.090Z,16.84
2018-02-08T14:21:09.895Z,16.87
2018-02-08T14:23:35.734Z,17.05
2018-02-08T14:26:01.539Z,17.03
2018-02-08T14:28:27.342Z,17.10
2018-02-08T14:30:53.277Z,17.05
2018-02-08T14:33:19.084Z,17.08
2018-02-08T14:35:45.026Z,17.12
2018-02-08T14:38:10.835Z,17.11
2018-02-08T14:40:36.652Z,17.22
2018-02-08T14:43:02.467Z,17.02
2018-02-08T14:45:28.274Z,16.96
2018-02-08T14:47:54.079Z,16.98
2018-02-08T14:50:19.882Z,17.02
2018-02-08T14:52:45.690Z,16.98
2018-02-08T14:55:11.491Z,16.97
2018-02-08T14:57:37.298Z,16.97
2018-02-08T15:00:03.138Z,16.92
2018-02-08T15:02:28.950Z,17.04
2018-02-08T15:04:54.753Z,17.16
2018-02-08T15:07:20.562Z,17.02
2018-02-08T15:09:46.365Z,16.98
2018-02-08T15:12:12.175Z,16.91
2018-02-08T15:14:38.025Z,16.98
2018-02-08T15:17:03.826Z,16.96
2018-02-08T15:19:29.671Z,16.87
2018-02-08T15:21:55.479Z,16.93
2018-02-08T15:24:21.354Z,17.10
2018-02-08T15:26:47.171Z,16.89
2018-02-08T15:29:13.014Z,16.94
2018-02-08T15:31:38.902Z,16.88
2018-02-08T15:34:04.710Z,16.98
2018-02-08T15:36:30.543Z,16.96
2018-02-08T15:38:56.351Z,16.87
2018-02-08T15:41:22.194Z,16.89
2018-02-08T15:43:48.006Z,16.95
2018-02-08T15:46:13.854Z,16.99
2018-02-08T15:48:39.658Z,16.90
2018-02-08T15:51:05.468Z,16.94
2018-02-08T15:53:31.274Z,16.97
2018-02-08T15:55:57.131Z,16.87
2018-02-08T15:58:22.981Z,16.90
2018-02-08T16:00:48.822Z,16.86
2018-02-08T16:03:14.673Z,16.84
2018-02-08T16:05:40.486Z,16.83
2018-02-08T16:08:06.295Z,16.81
2018-02-08T16:10:32.099Z,16.91
2018-02-08T16:12:57.942Z,17.02
2018-02-08T16:15:23.782Z,17.02
2018-02-08T16:17:49.587Z,17.06
2018-02-08T16:20:15.433Z,17.00
2018-02-08T16:22:41.242Z,16.94
2018-02-08T16:25:07.127Z,17.04
2018-02-08T16:27:32.933Z,16.95
2018-02-08T16:29:58.779Z,16.98
2018-02-08T16:32:24.586Z,16.97
2018-02-08T16:34:50.426Z,17.02
2018-02-08T16:37:16.242Z,17.02
2018-02-08T16:39:42.050Z,16.88
2018-02-08T16:42:07.865Z,16.83
2018-02-08T16:44:33.676Z,16.89
2018-02-08T16:46:59.486Z,16.96
2018-02-08T16:49:25.289Z,16.92
2018-02-08T16:51:51.093Z,16.92
2018-02-08T16:54:16.908Z,16.88
2018-02-08T16:56:42.744Z,16.87
2018-02-08T16:59:08.563Z,16.85
2018-02-08T17:01:34.423Z,16.86
2018-02-08T17:04:00.372Z,16.90
2018-02-08T17:06:26.194Z,16.89
2018-02-08T17:08:52.043Z,16.80
2018-02-08T17:11:17.893Z,16.88
2018-02-08T17:13:43.698Z,16.95
2018-02-08T17:16:09.549Z,16.82
2018-02-08T17:18:35.357Z,16.76
2018-02-08T17:21:01.174Z,16.61
2018-02-08T17:23:26.987Z,17.24
2018-02-08T17:25:52.807Z,17.48
2018-02-08T17:28:18.622Z,17.54
2018-02-08T17:30:44.451Z,17.58
2018-02-08T17:33:10.272Z,17.57
2018-02-08T17:35:36.083Z,17.50
2018-02-08T17:38:01.889Z,17.48
2018-02-08T17:40:27.751Z,17.40
2018-02-08T17:42:53.580Z,17.32
2018-02-08T17:45:19.547Z,17.49
2018-02-08T17:47:45.399Z,17.39
2018-02-08T17:50:11.218Z,17.46
2018-02-08T17:52:37.079Z,17.56
2018-02-08T17:55:02.907Z,17.26
2018-02-08T17:57:28.727Z,15.47
2018-02-08T17:59:54.555Z,14.83
2018-02-08T18:02:20.534Z,14.92
2018-02-08T18:04:46.346Z,14.78
2018-02-08T18:07:12.150Z,14.84
2018-02-08T18:09:37.974Z,14.82
2018-02-08T18:12:03.778Z,14.84
2018-02-08T18:14:29.585Z,14.81
2018-02-08T18:16:55.446Z,14.30
2018-02-08T18:19:21.254Z,14.47
2018-02-08T18:21:47.063Z,14.16
2018-02-08T18:24:13.050Z,14.09
2018-02-08T18:26:38.863Z,13.92
2018-02-08T18:29:04.682Z,13.73
2018-02-08T18:31:30.617Z,13.55
2018-02-08T18:33:56.425Z,13.65
2018-02-08T18:36:22.247Z,13.68
2018-02-08T18:38:48.058Z,13.81
2018-02-08T18:41:13.881Z,13.79
2018-02-08T18:43:39.734Z,13.55
2018-02-08T18:46:05.620Z,14.08
2018-02-08T18:48:31.432Z,13.73
2018-02-08T18:50:57.239Z,13.92
2018-02-08T18:53:23.207Z,13.86
2018-02-08T18:55:49.035Z,13.66
2018-02-08T18:58:14.942Z,13.95
2018-02-08T19:00:40.806Z,13.81
2018-02-08T19:03:06.625Z,14.83
2018-02-08T19:05:32.483Z,15.25
2018-02-08T19:07:58.608Z,14.57
2018-02-08T19:10:24.551Z,14.24
2018-02-08T19:12:50.408Z,13.79
2018-02-08T19:15:16.445Z,14.38
2018-02-08T19:17:42.279Z,14.93
2018-02-08T19:20:08.107Z,15.29
2018-02-08T19:22:33.922Z,15.60
2018-02-08T19:24:59.810Z,15.81
2018-02-08T19:27:25.630Z,15.85
2018-02-08T19:29:51.486Z,15.89
2018-02-08T19:32:17.290Z,16.01
2018-02-08T19:34:43.150Z,16.04
2018-02-08T19:37:08.967Z,16.17
2018-02-08T19:39:34.791Z,16.12
2018-02-08T19:42:00.632Z,16.12
2018-02-08T19:44:26.542Z,16.15
2018-02-08T19:46:52.462Z,16.18
2018-02-08T19:49:19.190Z,16.11
2018-02-08T19:51:46.144Z,16.23
2018-02-08T19:54:12.958Z,16.08
2018-02-08T19:56:39.976Z,16.19
2018-02-08T19:59:06.652Z,16.21
2018-02-08T20:01:33.603Z,16.18
2018-02-08T20:04:00.044Z,16.19
2018-02-08T20:06:26.073Z,16.18
2018-02-08T20:08:51.955Z,16.24
2018-02-08T20:11:17.838Z,16.24
2018-02-08T20:13:43.653Z,16.23
2018-02-08T20:16:09.634Z,16.21
2018-02-08T20:18:35.607Z,16.22
2018-02-08T20:21:01.550Z,16.20
2018-02-08T20:23:28.331Z,16.26
2018-02-08T20:25:54.306Z,16.26
2018-02-08T20:28:20.220Z,16.21
2018-02-08T20:30:52.139Z,16.16
2018-02-08T20:33:17.966Z,16.20
2018-02-08T20:35:43.954Z,16.05
2018-02-08T20:38:09.770Z,16.13
2018-02-08T20:40:35.587Z,16.15
2018-02-08T20:43:07.603Z,16.12
2018-02-08T20:45:33.553Z,16.21
2018-02-08T20:47:59.518Z,16.15
2018-02-08T20:50:26.419Z,16.20
2018-02-08T20:52:52.338Z,16.23
2018-02-08T20:55:18.383Z,16.31
2018-02-08T20:57:44.399Z,16.24
2018-02-08T21:00:11.394Z,16.24
2018-02-08T21:02:37.355Z,16.31
2018-02-08T21:05:03.212Z,16.26
2018-02-08T21:07:29.034Z,16.25
2018-02-08T21:09:57.091Z,16.31
2018-02-08T21:12:23.203Z,16.36
2018-02-08T21:14:49.088Z,16.35
2018-02-08T21:17:15.055Z,16.38
2018-02-08T21:19:41.071Z,16.26
2018-02-08T21:22:06.979Z,16.28
2018-02-08T21:24:32.911Z,16.35
2018-02-08T21:26:58.826Z,16.35
2018-02-08T21:29:24.959Z,16.29
2018-02-08T21:31:50.766Z,16.35
2018-02-08T21:34:16.597Z,16.28
2018-02-08T21:36:42.402Z,16.32
2018-02-08T21:39:10.405Z,16.38
2018-02-08T21:41:36.219Z,16.32
2018-02-08T21:44:02.133Z,16.33
2018-02-08T21:46:28.291Z,16.35
2018-02-08T21:48:54.172Z,16.29
2018-02-08T21:51:19.978Z,16.29
2018-02-08T21:53:45.822Z,16.32
2018-02-08T21:56:11.642Z,16.28
2018-02-08T21:58:37.554Z,16.36
2018-02-08T22:01:03.372Z,16.29
2018-02-08T22:03:29.305Z,16.30
2018-02-08T22:05:55.126Z,16.29
2018-02-08T22:08:20.931Z,16.34
2018-02-08T22:10:46.744Z,16.38
2018-02-08T22:13:12.556Z,16.22
2018-02-08T22:15:38.382Z,16.24
2018-02-08T22:18:04.204Z,16.26
2018-02-08T22:20:30.010Z,16.27
2018-02-08T22:22:55.822Z,16.25
2018-02-08T22:25:21.678Z,16.21
2018-02-08T22:27:47.494Z,16.19
2018-02-08T22:30:13.301Z,16.10
2018-02-08T22:32:39.115Z,16.17
2018-02-08T22:35:04.926Z,16.19
2018-02-08T22:37:30.734Z,16.21
2018-02-08T22:39:56.586Z,16.30
2018-02-08T22:42:22.407Z,16.29
2018-02-08T22:44:48.265Z,16.24
2018-02-08T22:47:14.078Z,16.21
2018-02-08T22:49:39.898Z,16.20
2018-02-08T22:52:05.754Z,16.22
2018-02-08T22:54:31.570Z,16.24
2018-02-08T22:56:57.416Z,16.25
2018-02-08T22:59:23.236Z,16.26
2018-02-08T23:01:49.144Z,16.16
2018-02-08T23:04:14.958Z,16.22
2018-02-08T23:06:40.782Z,16.25
2018-02-08T23:09:06.644Z,16.28
2018-02-08T23:11:32.464Z,16.26
2018-02-08T23:13:58.307Z,16.24
2018-02-08T23:16:24.126Z,16.30
2018-02-08T23:18:49.947Z,16.25
2018-02-08T23:21:15.769Z,16.27
2018-02-08T23:23:41.628Z,16.31
2018-02-08T23:26:07.478Z,16.29
2018-02-08T23:28:33.334Z,16.22
2018-02-08T23:30:59.200Z,16.27
2018-02-08T23:33:25.019Z,16.23
2018-02-08T23:35:50.876Z,16.30
2018-02-08T23:38:16.690Z,16.25
2018-02-08T23:40:42.547Z,16.27
2018-02-08T23:43:08.362Z,16.24
2018-02-08T23:45:34.206Z,16.26
2018-02-08T23:48:00.025Z,16.27
2018-02-08T23:50:25.887Z,16.26
2018-02-08T23:52:51.746Z,16.14
2018-02-08T23:55:17.974Z,16.16
2018-02-08T23:57:43.786Z,16.11
